Time;durP1;ratioP1;P1;durP2;ratioP2;P2;SDS_P1;SDS_P2;PMS_P1;PMS_P2;Temp;Humidity;BMP_temperature;BMP_pressure;BME280_temperature;BME280_humidity;BME280_pressure;Samples;Min_cycle;Max_cycle;Signal;HPM_P1;HPM_P2
2023/10/19 00:00:50;;;;;;;28.90;20.23;;;;;;;-144.30;100.00;86124.09;5049311;28;20197;-60
2023/10/19 00:03:18;;;;;;;28.87;19.73;;;;;;;-144.30;100.00;86090.28;5049748;28;20249;-53
2023/10/19 00:05:45;;;;;;;27.77;19.30;;;;;;;-144.30;100.00;86084.34;5049565;28;20209;-59
2023/10/19 00:08:17;;;;;;;25.50;19.10;;;;;;;-144.30;100.00;86142.00;5049504;28;20645;-52
2023/10/19 00:10:48;;;;;;;24.37;18.37;;;;;;;-144.30;100.00;86088.31;5049279;28;20196;-58
2023/10/19 00:13:19;;;;;;;24.77;19.37;;;;;;;-144.30;100.00;86145.97;5048883;28;20232;-58
2023/10/19 00:15:48;;;;;;;24.60;18.27;;;;;;;-144.30;100.00;86110.19;5053115;28;20687;-58
2023/10/19 00:18:23;;;;;;;23.90;18.63;;;;;;;-144.30;100.00;86124.09;5052909;28;20255;-59
2023/10/19 00:20:52;;;;;;;23.83;17.33;;;;;;;-144.30;100.00;86120.13;5052822;28;20196;-59
2023/10/19 00:23:24;;;;;;;28.23;19.13;;;;;;;-144.30;100.00;86096.25;5053173;28;20283;-59
2023/10/19 00:25:51;;;;;;;22.03;17.47;;;;;;;-144.30;100.00;86120.13;5052803;28;20575;-58
2023/10/19 00:28:19;;;;;;;22.80;17.77;;;;;;;-144.30;100.00;86140.00;5052633;28;20232;-54
2023/10/19 00:30:48;;;;;;;24.47;18.20;;;;;;;-144.30;100.00;86114.16;5052999;28;20303;-60
2023/10/19 00:33:18;;;;;;;27.53;18.07;;;;;;;-144.30;100.00;86116.16;5052711;28;20228;-53
2023/10/19 00:35:50;;;;;;;25.90;17.17;;;;;;;-144.30;100.00;86147.97;5052751;28;20200;-52
2023/10/19 00:38:39;;;;;;;25.00;18.30;;;;;;;-144.30;100.00;86112.16;5052516;28;20197;-60
2023/10/19 00:41:07;;;;;;;22.50;16.53;;;;;;;-144.30;100.00;86124.09;5052841;28;20691;-54
2023/10/19 00:43:36;;;;;;;21.17;16.77;;;;;;;-144.30;100.00;86092.28;5052845;28;20274;-52
2023/10/19 00:46:04;;;;;;;23.97;16.93;;;;;;;-144.30;100.00;86136.03;5052545;28;20203;-53
2023/10/19 00:48:34;;;;;;;22.67;17.77;;;;;;;-144.30;100.00;86118.13;5052484;28;20205;-53
2023/10/19 00:51:09;;;;;;;23.27;17.03;;;;;;;-144.30;100.00;86181.75;5052361;28;20200;-53
2023/10/19 00:53:39;;;;;;;24.47;17.07;;;;;;;-144.30;100.00;86124.09;5052560;28;20207;-59
2023/10/19 00:56:09;;;;;;;24.77;18.07;;;;;;;-144.30;100.00;86124.09;5052476;28;20586;-52
2023/10/19 00:58:39;;;;;;;23.77;17.30;;;;;;;-144.30;100.00;86130.06;5052337;28;20208;-53
2023/10/19 01:01:06;;;;;;;23.47;16.47;;;;;;;-144.30;100.00;86116.16;5052155;28;20668;-53
2023/10/19 01:03:38;;;;;;;24.83;17.80;;;;;;;-144.30;100.00;86147.97;5051920;28;20197;-60
2023/10/19 01:06:12;;;;;;;23.33;17.33;;;;;;;-144.30;100.00;86147.97;5052224;28;20586;-59
2023/10/19 01:08:42;;;;;;;23.90;16.33;;;;;;;-144.30;100.00;86136.03;5052436;28;20589;-53
2023/10/19 01:11:12;;;;;;;21.83;17.90;;;;;;;-144.30;100.00;86163.88;5052309;28;20755;-53
2023/10/19 01:13:44;;;;;;;23.67;17.50;;;;;;;-144.30;100.00;86132.06;5052036;28;20778;-54
2023/10/19 01:16:19;;;;;;;23.90;17.60;;;;;;;-144.30;100.00;86128.06;5052273;28;20606;-52
2023/10/19 01:18:50;;;;;;;23.80;17.43;;;;;;;-144.30;100.00;86140.00;5052124;28;20188;-54
2023/10/19 01:21:21;;;;;;;23.60;17.67;;;;;;;-144.30;100.00;86140.00;5051866;28;20254;-53
2023/10/19 01:23:49;;;;;;;25.47;17.33;;;;;;;-144.30;100.00;86116.16;5051831;28;20235;-59
2023/10/19 01:26:21;;;;;;;22.33;17.20;;;;;;;-144.30;100.00;86088.31;5050408;28;20247;-59
2023/10/19 01:28:51;;;;;;;23.20;17.10;;;;;;;-144.30;100.00;86114.16;5051631;28;20243;-53
2023/10/19 01:31:30;;;;;;;20.00;16.50;;;;;;;-144.30;100.00;86104.22;5051842;28;20200;-53
2023/10/19 01:33:59;;;;;;;20.37;16.23;;;;;;;-144.30;100.00;86147.97;5051731;28;20209;-54
2023/10/19 01:36:26;;;;;;;27.17;16.57;;;;;;;-144.30;100.00;86116.16;5051539;28;20650;-54
2023/10/19 01:38:55;;;;;;;23.87;17.93;;;;;;;-144.30;100.00;86112.16;5051313;28;20239;-52
2023/10/19 01:41:23;;;;;;;24.63;17.53;;;;;;;-144.30;100.00;86140.00;5051335;28;20244;-52
2023/10/19 01:43:53;;;;;;;21.93;16.40;;;;;;;-144.30;100.00;86122.09;5051494;28;20673;-53
2023/10/19 01:46:24;;;;;;;24.77;17.20;;;;;;;-144.30;100.00;86124.09;5051459;28;20682;-53
2023/10/19 01:48:55;;;;;;;26.60;18.13;;;;;;;-144.30;100.00;86130.06;5051386;28;20205;-60
2023/10/19 01:51:22;;;;;;;23.33;17.23;;;;;;;-144.30;100.00;86153.91;5051049;28;20204;-59
2023/10/19 01:53:49;;;;;;;24.33;18.50;;;;;;;-144.30;100.00;86072.41;5051310;28;20779;-60
2023/10/19 01:56:18;;;;;;;25.07;19.10;;;;;;;-144.30;100.00;86153.91;5051255;28;20208;-59
2023/10/19 01:58:46;;;;;;;22.00;17.53;;;;;;;-144.30;100.00;86108.19;5051225;28;20359;-59
2023/10/19 02:01:28;;;;;;;27.10;18.13;;;;;;;-144.30;100.00;86132.06;5051654;28;20204;-53
2023/10/19 02:03:58;;;;;;;26.27;18.83;;;;;;;-144.30;100.00;86136.03;5050776;28;20212;-58
2023/10/19 02:06:27;;;;;;;23.70;18.23;;;;;;;-144.30;100.00;86090.28;5051095;28;20266;-53
2023/10/19 02:08:56;;;;;;;24.93;17.93;;;;;;;-144.30;100.00;86056.50;5051224;28;20254;-53
2023/10/19 02:11:25;;;;;;;26.93;19.07;;;;;;;-144.30;100.00;86132.06;5050793;28;20205;-52
2023/10/19 02:13:54;;;;;;;26.37;18.50;;;;;;;-144.30;100.00;86104.22;5050878;28;20640;-53
2023/10/19 02:16:22;;;;;;;26.27;18.53;;;;;;;-144.30;100.00;86066.44;5050546;28;20262;-58
2023/10/19 02:18:50;;;;;;;23.63;17.90;;;;;;;-144.30;100.00;86151.94;5050631;28;20246;-52
2023/10/19 02:21:21;;;;;;;24.77;18.33;;;;;;;-144.30;100.00;86126.09;5050748;28;20205;-52
2023/10/19 02:23:50;;;;;;;26.97;18.10;;;;;;;-144.30;100.00;86014.75;5050669;28;20200;-52
2023/10/19 02:26:19;;;;;;;26.30;18.17;;;;;;;-144.30;100.00;86088.31;5050642;28;20207;-53
2023/10/19 02:28:47;;;;;;;28.13;19.20;;;;;;;-144.30;100.00;86090.28;5050452;28;20228;-52
2023/10/19 02:31:19;;;;;;;27.47;19.67;;;;;;;-144.30;100.00;86112.16;5050566;28;20574;-60
2023/10/19 02:33:45;;;;;;;27.27;19.13;;;;;;;-144.30;100.00;86100.25;5050407;28;20220;-58
2023/10/19 02:36:19;;;;;;;26.10;19.37;;;;;;;-144.30;100.00;86120.13;5050147;28;20201;-59
2023/10/19 02:38:48;;;;;;;24.87;18.10;;;;;;;-144.30;100.00;85953.09;5050551;28;20587;-59
2023/10/19 02:41:15;;;;;;;19.93;17.27;;;;;;;-144.30;100.00;86104.22;5050550;28;20651;-59
2023/10/19 02:43:45;;;;;;;20.40;16.23;;;;;;;-144.30;100.00;86100.25;5050332;28;20577;-59
2023/10/19 02:46:14;;;;;;;25.17;18.03;;;;;;;-144.30;100.00;86138.00;5050356;28;20200;-53
2023/10/19 02:48:44;;;;;;;29.17;19.40;;;;;;;-144.30;100.00;86122.09;5050307;28;20227;-53
2023/10/19 02:51:11;;;;;;;24.93;19.50;;;;;;;-144.30;100.00;86140.00;5050178;28;20200;-54
2023/10/19 02:53:39;;;;;;;27.37;19.47;;;;;;;-144.30;100.00;86151.94;5049950;28;20221;-52
2023/10/19 02:56:13;;;;;;;27.20;19.93;;;;;;;-144.30;100.00;86149.94;5049943;28;20242;-53
2023/10/19 02:58:42;;;;;;;26.23;18.57;;;;;;;-144.30;100.00;86092.28;5050324;28;20695;-52
2023/10/19 03:01:22;;;;;;;22.80;17.23;;;;;;;-144.30;100.00;86120.13;5049887;28;20197;-60
2023/10/19 03:03:53;;;;;;;27.53;17.37;;;;;;;-144.30;100.00;86068.41;5050334;28;20561;-59
2023/10/19 03:06:21;;;;;;;21.47;14.43;;;;;;;-144.30;100.00;86020.69;5049902;28;20204;-59
2023/10/19 03:08:52;;;;;;;20.93;14.83;;;;;;;-144.30;100.00;86094.28;5050104;28;20579;-60
2023/10/19 03:11:19;;;;;;;15.50;12.97;;;;;;;-144.30;100.00;86076.38;5054869;28;20204;-53
2023/10/19 03:13:46;;;;;;;18.07;14.00;;;;;;;-144.30;99.66;86114.16;5049618;28;20228;-59
2023/10/19 03:16:19;;;;;;;16.37;13.47;;;;;;;-144.30;99.03;86076.38;5049832;28;20212;-52
2023/10/19 03:18:45;;;;;;;18.77;13.87;;;;;;;-144.30;99.49;86096.25;5055941;28;20207;-60
2023/10/19 03:21:11;;;;;;;16.43;13.73;;;;;;;-144.30;99.38;86064.44;5049775;28;20208;-58
2023/10/19 03:23:38;;;;;;;17.57;13.90;;;;;;;-144.30;99.04;86090.28;5057353;28;20195;-59
2023/10/19 03:28:49;;;;;;;18.00;13.27;;;;;;;-144.30;97.93;86074.38;5065919;28;20314;-60
2023/10/19 03:31:17;;;;;;;18.53;13.80;;;;;;;-144.30;97.55;86068.41;5069704;28;20307;-59
2023/10/19 03:33:47;;;;;;;21.67;13.87;;;;;;;-144.30;97.53;86068.41;5069584;28;20258;-52
2023/10/19 03:36:14;;;;;;;18.17;13.57;;;;;;;-144.30;97.57;86056.50;5069682;28;20200;-58
2023/10/19 03:38:41;;;;;;;16.87;13.13;;;;;;;-144.30;97.74;86098.25;5069620;28;20196;-57
2023/10/19 03:41:09;;;;;;;17.87;14.43;;;;;;;-144.30;97.58;86082.34;5069670;28;20637;-60
2023/10/19 03:43:36;;;;;;;17.53;12.70;;;;;;;-144.30;97.50;86116.16;5069632;28;20228;-59
2023/10/19 03:46:14;;;;;;;16.67;13.50;;;;;;;-144.30;97.48;86084.34;5064001;28;20196;-59
2023/10/19 03:48:46;;;;;;;23.57;14.10;;;;;;;-144.30;97.82;86108.19;5049125;28;20200;-53
2023/10/19 03:51:14;;;;;;;16.87;13.57;;;;;;;-144.30;97.86;86106.19;5073268;28;20204;-53
2023/10/19 03:53:46;;;;;;;15.70;13.27;;;;;;;-144.30;98.33;86098.25;5073069;28;20258;-60
2023/10/19 03:56:13;;;;;;;17.97;14.33;;;;;;;-144.30;98.44;86094.28;5072972;28;20196;-52
2023/10/19 03:58:44;;;;;;;20.17;12.87;;;;;;;-144.30;98.29;86120.13;5071142;28;20614;-53
2023/10/19 04:01:11;;;;;;;17.43;12.90;;;;;;;-144.30;98.31;86120.13;5048953;28;20213;-59
2023/10/19 04:03:38;;;;;;;14.63;12.27;;;;;;;-144.30;98.23;86151.94;5041689;28;20197;-59
2023/10/19 04:06:13;;;;;;;16.60;13.07;;;;;;;-144.30;98.02;86120.13;5044239;28;20193;-58
2023/10/19 04:08:40;;;;;;;20.80;13.90;;;;;;;-144.30;98.18;86171.81;5041810;28;20251;-52
2023/10/19 04:11:11;;;;;;;17.67;12.73;;;;;;;-144.30;98.39;86132.06;5037874;28;20654;-53
2023/10/19 04:13:39;;;;;;;17.33;13.20;;;;;;;-144.30;98.50;86161.88;5032491;28;20225;-54
2023/10/19 04:16:09;;;;;;;16.07;13.67;;;;;;;-144.30;98.36;86132.06;5032606;28;20204;-59
2023/10/19 04:18:39;;;;;;;20.20;13.50;;;;;;;-144.30;98.23;86126.09;5033058;28;20197;-52
2023/10/19 04:21:08;;;;;;;15.83;12.87;;;;;;;-144.30;98.69;86163.88;5033092;28;20193;-53
2023/10/19 04:23:36;;;;;;;18.43;13.30;;;;;;;-144.30;98.59;86157.91;5032972;28;20201;-53
2023/10/19 04:26:10;;;;;;;14.97;13.43;;;;;;;-144.30;98.80;86175.78;5032921;28;20587;-53
2023/10/19 04:28:44;;;;;;;19.67;13.67;;;;;;;-144.30;99.23;86142.00;5032933;28;20229;-53
2023/10/19 04:31:17;;;;;;;23.43;15.40;;;;;;;-144.30;99.75;86140.00;5042451;28;20204;-59
2023/10/19 04:33:46;;;;;;;21.83;14.30;;;;;;;-144.30;99.91;85967.03;5062475;28;20249;-59
2023/10/19 04:36:19;;;;;;;17.77;14.63;;;;;;;-144.30;100.00;86128.06;5047431;28;20199;-60
2023/10/19 04:38:46;;;;;;;20.93;15.37;;;;;;;-144.30;100.00;86155.91;5070320;28;20195;-52
2023/10/19 04:41:15;;;;;;;19.27;14.50;;;;;;;-144.30;100.00;86171.81;5071886;28;20231;-54
2023/10/19 04:43:46;;;;;;;15.37;13.77;;;;;;;-144.30;100.00;86187.72;5072236;28;20204;-58
2023/10/19 04:46:14;;;;;;;18.23;13.73;;;;;;;-144.30;100.00;86191.69;5071573;28;20589;-58
2023/10/19 04:48:42;;;;;;;21.27;14.67;;;;;;;-144.30;100.00;86223.50;5072270;28;20196;-59
2023/10/19 04:51:09;;;;;;;20.30;14.20;;;;;;;-144.30;100.00;86223.50;5072344;28;20200;-59
2023/10/19 04:53:38;;;;;;;21.43;14.10;;;;;;;-144.30;100.00;86177.78;5059852;28;20224;-58
2023/10/19 04:56:06;;;;;;;22.67;15.47;;;;;;;-144.30;100.00;86165.84;5032175;28;20208;-54
2023/10/19 04:58:33;;;;;;;21.43;15.23;;;;;;;-144.30;100.00;86203.63;5032266;28;20236;-52
2023/10/19 05:01:00;;;;;;;19.57;15.37;;;;;;;-144.30;100.00;86205.63;5032162;28;20201;-53
2023/10/19 05:03:27;;;;;;;24.20;16.03;;;;;;;-144.30;100.00;86092.28;5032398;28;20634;-59
2023/10/19 05:05:56;;;;;;;23.03;14.33;;;;;;;-144.30;100.00;86199.66;5032446;28;20198;-59
2023/10/19 05:08:25;;;;;;;19.27;13.70;;;;;;;-144.30;100.00;86207.59;5032037;28;20197;-59
2023/10/19 05:10:55;;;;;;;21.67;14.07;;;;;;;-144.30;100.00;86159.88;5032096;28;20201;-53
2023/10/19 05:13:22;;;;;;;17.60;14.17;;;;;;;-144.30;99.41;86159.88;5031927;28;20221;-54
2023/10/19 05:15:49;;;;;;;17.53;13.20;;;;;;;-144.30;98.41;86147.97;5033623;28;20204;-53
2023/10/19 05:18:16;;;;;;;18.33;13.47;;;;;;;-144.30;97.31;86149.94;5055436;28;20715;-53
2023/10/19 05:20:43;;;;;;;21.93;13.93;;;;;;;-144.30;96.08;86092.28;5071698;28;20692;-54
2023/10/19 05:23:10;;;;;;;28.00;13.13;;;;;;;-144.30;94.91;86064.44;5071450;28;20688;-53
2023/10/19 05:25:37;;;;;;;19.60;12.17;;;;;;;-144.30;93.58;85935.22;5071258;28;20665;-53
2023/10/19 05:28:07;;;;;;;18.40;12.90;;;;;;;-144.30;90.62;85883.50;5071210;28;20271;-54
2023/10/19 05:30:34;;;;;;;14.90;11.27;;;;;;;-144.30;89.43;85939.19;5070844;28;20279;-53
2023/10/19 05:33:02;;;;;;;16.47;11.63;;;;;;;-144.30;86.02;85903.41;5071215;28;20220;-58
2023/10/19 05:35:30;;;;;;;16.43;12.07;;;;;;;-144.30;84.00;85841.75;5071410;28;20231;-59
2023/10/19 05:37:57;;;;;;;11.83;10.60;;;;;;;-144.30;82.36;85774.16;5071529;28;20235;-53
2023/10/19 05:40:29;;;;;;;14.80;11.20;;;;;;;-144.30;79.12;85726.44;5071221;28;20196;-59
2023/10/19 05:42:57;;;;;;;15.03;11.10;;;;;;;-144.30;76.33;85551.50;5071370;28;20200;-53
2023/10/19 05:45:26;;;;;;;12.30;11.03;;;;;;;-144.30;75.92;85690.66;5070508;28;20245;-54
2023/10/19 05:47:53;;;;;;;12.33;9.83;;;;;;;-144.30;75.72;85674.75;5071299;28;20317;-54
2023/10/19 05:50:20;;;;;;;12.07;9.67;;;;;;;-144.30;74.65;85611.13;5033860;28;20240;-54
2023/10/19 05:52:48;;;;;;;11.17;10.07;;;;;;;-144.30;72.98;85535.59;5030563;28;20197;-54
2023/10/19 05:55:17;;;;;;;14.70;9.90;;;;;;;-144.30;71.45;85521.69;5030882;28;20244;-55
2023/10/19 05:57:44;;;;;;;15.90;10.37;;;;;;;-144.30;70.26;85448.13;5031340;28;20205;-60
2023/10/19 06:00:17;;;;;;;12.43;9.57;;;;;;;-144.30;68.51;85312.94;5030980;28;20276;-60
2023/10/19 06:02:47;;;;;;;20.80;9.77;;;;;;;-144.30;65.69;85261.25;5031072;28;20362;-59
2023/10/19 06:05:16;;;;;;;17.40;9.45;;;;;;;-144.30;63.26;85128.06;5030814;28;20201;-60
2023/10/19 06:07:43;;;;;;;10.82;9.73;;;;;;;-144.30;61.51;85030.66;5030776;28;20197;-60
2023/10/19 06:10:15;;;;;;;11.30;10.05;;;;;;;-144.30;55.49;84917.38;5030904;28;20202;-54
2023/10/19 06:12:43;;;;;;;16.85;9.90;;;;;;;-144.30;54.86;84778.25;5030639;28;20247;-54
2023/10/19 06:15:12;;;;;;;10.68;9.65;;;;;;;-144.30;52.88;84631.16;5031215;28;20197;-61
2023/10/19 06:17:39;;;;;;;14.55;11.23;;;;;;;-144.30;49.56;84557.63;5030823;28;20204;-60
2023/10/19 06:20:19;;;;;;;11.68;10.48;;;;;;;-144.30;50.10;84672.91;5030782;28;20233;-60
2023/10/19 06:22:50;;;;;;;15.10;10.48;;;;;;;-144.30;49.42;84555.63;5030606;28;20197;-60
2023/10/19 06:25:18;;;;;;;11.65;9.90;;;;;;;-144.30;46.19;84358.88;5030593;28;20205;-60
2023/10/19 06:27:47;;;;;;;15.05;10.30;;;;;;;-144.30;43.46;84207.84;5030272;28;20233;-60
2023/10/19 06:30:17;;;;;;;14.70;10.18;;;;;;;-144.30;41.75;84092.59;5030389;28;20197;-61
2023/10/19 06:32:46;;;;;;;15.77;9.52;;;;;;;-144.30;40.08;84040.91;5030360;28;20665;-60
2023/10/19 06:35:15;;;;;;;12.32;9.65;;;;;;;-144.30;40.73;84001.19;5030736;28;20225;-62
2023/10/19 06:37:42;;;;;;;14.43;11.27;;;;;;;-144.30;40.51;84088.63;5030669;28;20699;-62
2023/10/19 06:40:11;;;;;;;13.05;11.15;;;;;;;-144.30;40.60;84182.00;5030246;28;20208;-60
2023/10/19 06:42:38;;;;;;;22.67;12.43;;;;;;;-144.30;42.32;84452.28;5030413;28;20197;-59
2023/10/19 06:45:07;;;;;;;19.10;11.77;;;;;;;-144.30;45.10;84509.94;5030315;28;20203;-60
2023/10/19 06:47:37;;;;;;;13.73;10.90;;;;;;;-144.30;47.94;84901.47;5030120;28;20557;-60
2023/10/19 06:50:07;;;;;;;11.93;10.90;;;;;;;-144.30;50.71;85076.38;5030691;28;20204;-60
2023/10/19 06:52:35;;;;;;;12.60;11.40;;;;;;;-144.30;53.24;85173.78;5046906;28;20236;-60
2023/10/19 06:55:04;;;;;;;12.73;11.65;;;;;;;-144.30;55.12;85271.19;5068859;28;20216;-60
2023/10/19 06:57:31;;;;;;;16.67;13.05;;;;;;;-144.30;57.06;85350.72;5064842;28;20205;-59
2023/10/19 06:59:58;;;;;;;19.50;15.25;;;;;;;-144.30;59.10;85426.25;5040580;28;20693;-60
2023/10/19 07:02:26;;;;;;;13.88;12.45;;;;;;;-144.30;59.80;85440.16;5027413;28;20197;-59
2023/10/19 07:04:53;;;;;;;13.30;12.00;;;;;;;-144.30;60.16;85458.06;5035049;28;20193;-59
2023/10/19 07:07:20;;;;;;;13.70;12.27;;;;;;;-144.30;61.85;85521.69;5049240;28;20192;-58
2023/10/19 07:09:48;;;;;;;18.20;12.13;;;;;;;-144.30;62.94;85527.63;5039103;28;20208;-60
2023/10/19 07:12:18;;;;;;;13.23;11.93;;;;;;;-144.30;63.63;85521.69;5030428;28;20665;-60
2023/10/19 07:14:44;;;;;;;12.37;11.17;;;;;;;-144.30;64.01;85543.53;5041366;28;20460;-61
2023/10/19 07:17:12;;;;;;;13.47;11.63;;;;;;;-144.30;64.51;85531.63;5048030;28;20200;-54
2023/10/19 07:19:43;;;;;;;19.13;12.37;;;;;;;-144.30;64.87;85543.53;5048681;28;20192;-59
2023/10/19 07:22:10;;;;;;;14.53;12.10;;;;;;;-144.30;66.14;85581.31;5049706;28;20199;-59
2023/10/19 07:24:38;;;;;;;14.63;12.13;;;;;;;-144.30;68.26;85635.00;5050737;28;20610;-55
2023/10/19 07:27:07;;;;;;;13.13;11.63;;;;;;;-144.30;69.28;85644.94;5053811;28;20262;-53
2023/10/19 07:29:35;;;;;;;14.17;12.67;;;;;;;-144.30;69.92;85658.84;5053715;28;20235;-59
2023/10/19 07:32:04;;;;;;;17.90;12.93;;;;;;;-144.30;70.24;85631.03;5053596;28;20200;-59
2023/10/19 07:34:34;;;;;;;14.40;12.33;;;;;;;-144.30;69.47;85613.13;5053735;28;20661;-53
2023/10/19 07:37:01;;;;;;;13.83;12.33;;;;;;;-144.30;68.81;86014.75;5053682;28;20196;-59
2023/10/19 07:39:30;;;;;;;14.03;12.20;;;;;;;-144.30;67.89;85603.19;5053492;28;20222;-58
2023/10/19 07:41:57;;;;;;;18.40;12.90;;;;;;;-144.30;67.33;85547.53;5053674;28;20202;-59
2023/10/19 07:44:25;;;;;;;22.27;14.97;;;;;;;-144.30;68.41;85599.22;5039651;28;20303;-60
2023/10/19 07:46:53;;;;;;;21.43;14.53;;;;;;;-144.30;68.13;85571.38;5033211;28;20193;-59
2023/10/19 07:49:21;;;;;;;19.07;14.60;;;;;;;-144.30;67.47;85599.22;5031976;28;20201;-59
2023/10/19 07:51:49;;;;;;;19.17;14.83;;;;;;;-144.30;67.04;85569.38;5032960;28;20276;-59
2023/10/19 07:54:16;;;;;;;18.97;16.23;;;;;;;-144.30;67.52;85583.31;5032758;28;20256;-60
2023/10/19 07:56:43;;;;;;;22.77;15.53;;;;;;;-144.30;67.83;85627.03;5045777;28;20700;-52
2023/10/19 07:59:12;;;;;;;22.57;16.00;;;;;;;-144.30;67.87;85623.06;5046793;28;20275;-52
2023/10/19 08:01:40;;;;;;;21.70;15.37;;;;;;;-144.30;67.36;85599.22;5048506;28;20641;-60
2023/10/19 08:04:07;;;;;;;26.60;14.47;;;;;;;-144.30;67.10;85583.31;5045909;28;20203;-60
2023/10/19 08:06:34;;;;;;;18.13;14.10;;;;;;;-144.30;67.19;85581.31;5057213;28;20780;-54
2023/10/19 08:09:04;;;;;;;17.13;14.40;;;;;;;-144.30;67.34;85573.38;5050271;28;20707;-54
2023/10/19 08:11:33;;;;;;;16.70;14.57;;;;;;;-144.30;67.90;85648.91;5032421;28;20201;-59
2023/10/19 08:14:01;;;;;;;16.67;14.73;;;;;;;-144.30;68.45;85619.09;5031399;28;20225;-59
2023/10/19 08:16:28;;;;;;;17.63;14.53;;;;;;;-144.30;68.42;85627.03;5032811;28;20697;-53
2023/10/19 08:18:56;;;;;;;18.53;13.93;;;;;;;-144.30;68.81;85619.09;5032959;28;20597;-54
2023/10/19 08:21:23;;;;;;;16.23;14.37;;;;;;;-144.30;69.57;85627.03;5032830;28;20208;-59
2023/10/19 08:23:50;;;;;;;22.00;14.37;;;;;;;-144.30;70.00;85648.91;5039769;28;20587;-53
2023/10/19 08:26:17;;;;;;;17.57;13.30;;;;;;;-144.30;70.06;85607.16;5040543;28;20193;-59
2023/10/19 08:28:43;;;;;;;21.47;14.77;;;;;;;-144.30;70.04;85615.13;5032845;28;20721;-59
2023/10/19 08:31:11;;;;;;;16.90;15.10;;;;;;;-144.30;71.06;85577.34;5032982;28;20197;-58
2023/10/19 08:33:41;;;;;;;18.53;15.93;;;;;;;-144.30;71.69;85617.09;5032749;28;20216;-53
2023/10/19 08:36:19;;;;;;;16.33;14.63;;;;;;;-144.30;72.47;85631.03;5040621;28;20737;-54
2023/10/19 08:38:46;;;;;;;18.03;14.87;;;;;;;-144.30;72.76;85646.91;5052593;28;20223;-53
2023/10/19 08:41:15;;;;;;;26.73;15.70;;;;;;;-144.30;72.89;85660.84;5052436;28;20283;-59
2023/10/19 08:43:42;;;;;;;18.90;15.33;;;;;;;-144.30;73.01;85623.06;5052765;28;20742;-58
2023/10/19 08:46:12;;;;;;;20.07;16.03;;;;;;;-144.30;73.53;85666.81;5052679;28;20571;-58
2023/10/19 08:48:39;;;;;;;19.33;16.93;;;;;;;-144.30;73.56;85658.84;5049399;28;20197;-60
2023/10/19 08:51:11;;;;;;;26.97;15.77;;;;;;;-144.30;73.31;85823.88;5052550;28;20196;-59
2023/10/19 08:53:44;;;;;;;18.37;16.23;;;;;;;-144.30;73.41;85662.81;5052611;28;20227;-59
2023/10/19 08:56:12;;;;;;;17.80;15.90;;;;;;;-144.30;73.39;85615.13;5052429;28;20641;-53
2023/10/19 08:58:40;;;;;;;19.37;16.50;;;;;;;-144.30;73.47;85666.81;5052231;28;20204;-59
2023/10/19 09:01:09;;;;;;;19.30;16.53;;;;;;;-144.30;73.80;85617.09;5052209;28;20204;-58
2023/10/19 09:03:37;;;;;;;19.17;15.70;;;;;;;-144.30;73.73;85666.81;5052066;28;20196;-60
2023/10/19 09:06:05;;;;;;;18.37;16.20;;;;;;;-144.30;72.74;85535.59;5052262;28;20668;-53
2023/10/19 09:08:40;;;;;;;29.33;16.20;;;;;;;-144.30;72.28;85635.00;5051989;28;20673;-59
2023/10/19 09:11:08;;;;;;;28.07;16.00;;;;;;;-144.30;72.67;85611.13;5048495;28;20202;-52
2023/10/19 09:13:46;;;;;;;19.30;14.73;;;;;;;-144.30;73.26;85619.09;5052201;28;20700;-57
2023/10/19 09:16:15;;;;;;;17.27;15.37;;;;;;;-144.30;72.14;85660.84;5045912;28;20628;-59
2023/10/19 09:18:42;;;;;;;16.83;15.03;;;;;;;-144.30;71.43;85607.16;5041923;28;20208;-59
2023/10/19 09:21:11;;;;;;;20.80;15.90;;;;;;;-144.30;71.67;85635.00;5044813;28;20283;-58
2023/10/19 09:23:41;;;;;;;18.57;14.77;;;;;;;-144.30;71.33;85629.03;5048906;28;20192;-51
2023/10/19 09:26:08;;;;;;;14.53;12.80;;;;;;;-144.30;68.80;85611.13;5049433;28;20583;-51
2023/10/19 09:28:37;;;;;;;12.40;11.20;;;;;;;-144.30;68.23;85607.16;5044046;28;20236;-52
2023/10/19 09:31:05;;;;;;;15.23;13.70;;;;;;;-144.30;68.60;85575.34;5038042;28;20565;-53
2023/10/19 09:33:34;;;;;;;17.47;14.20;;;;;;;-144.30;68.90;85599.22;5041370;28;20576;-53
2023/10/19 09:36:04;;;;;;;16.90;14.93;;;;;;;-144.30;68.77;85599.22;5040003;28;20602;-52
2023/10/19 09:38:32;;;;;;;17.60;14.27;;;;;;;-144.30;69.05;85599.22;5040984;28;20676;-53
2023/10/19 09:41:01;;;;;;;20.97;15.03;;;;;;;-144.30;70.24;85621.06;5042050;28;20232;-53
2023/10/19 09:43:35;;;;;;;16.10;14.43;;;;;;;-144.30;70.14;85587.28;5042579;28;20200;-59
2023/10/19 09:46:07;;;;;;;15.37;13.37;;;;;;;-144.30;68.96;85569.38;5039283;28;20204;-53
2023/10/19 09:48:41;;;;;;;14.37;12.97;;;;;;;-144.30;67.26;85577.34;5040028;28;20212;-53
2023/10/19 09:51:09;;;;;;;18.70;13.20;;;;;;;-144.30;66.81;85535.59;5040992;28;20219;-53
2023/10/19 09:53:39;;;;;;;13.47;12.17;;;;;;;-144.30;66.30;85555.47;5035305;28;20271;-51
2023/10/19 09:56:14;;;;;;;17.43;13.30;;;;;;;-144.30;66.85;85515.72;5034435;28;20217;-51
2023/10/19 09:58:46;;;;;;;15.93;13.83;;;;;;;-144.30;66.47;85507.75;5043131;28;20695;-53
2023/10/19 10:01:13;;;;;;;17.07;15.33;;;;;;;-144.30;65.78;85503.78;5041440;28;20299;-52
2023/10/19 10:03:48;;;;;;;15.27;13.20;;;;;;;-144.30;65.42;85485.88;5044247;28;20197;-53
2023/10/19 10:06:16;;;;;;;16.27;12.80;;;;;;;-144.30;65.36;85471.97;5040536;28;20653;-53
2023/10/19 10:08:44;;;;;;;16.07;12.70;;;;;;;-144.30;64.96;85446.13;5038446;28;20197;-52
2023/10/19 10:11:18;;;;;;;15.70;12.67;;;;;;;-144.30;64.10;85412.34;5040056;28;20275;-53
2023/10/19 10:13:50;;;;;;;14.37;12.83;;;;;;;-144.30;63.77;85473.97;5040317;28;20351;-52
2023/10/19 10:16:18;;;;;;;17.40;12.87;;;;;;;-144.30;63.37;85817.91;5039416;28;20221;-53
2023/10/19 10:18:48;;;;;;;14.53;12.53;;;;;;;-144.30;63.33;85430.22;5041143;28;20281;-53
2023/10/19 10:21:16;;;;;;;14.37;12.93;;;;;;;-144.30;63.12;85412.34;5041099;28;20247;-53
2023/10/19 10:23:45;;;;;;;13.43;11.93;;;;;;;-144.30;62.91;85412.34;5040764;28;20193;-59
2023/10/19 10:26:13;;;;;;;13.83;12.27;;;;;;;-144.30;62.59;85412.34;5039581;28;20280;-57
2023/10/19 10:28:46;;;;;;;17.47;12.70;;;;;;;-144.30;62.41;85402.41;5039825;28;20286;-58
2023/10/19 10:31:16;;;;;;;14.73;13.23;;;;;;;-144.30;62.31;85406.38;5038467;28;20585;-59
2023/10/19 10:33:48;;;;;;;24.37;18.90;;;;;;;-144.30;62.56;85396.44;5042442;28;20189;-59
2023/10/19 10:36:17;;;;;;;15.05;13.55;;;;;;;-144.30;62.24;85400.41;5036434;28;20708;-52
2023/10/19 10:38:45;;;;;;;15.85;12.52;;;;;;;-144.30;61.88;85336.78;5040258;28;20193;-53
2023/10/19 10:41:12;;;;;;;13.02;11.63;;;;;;;-144.30;61.31;85346.72;5036100;28;20200;-52
2023/10/19 10:43:55;;;;;;;11.68;10.15;;;;;;;-144.30;60.75;85390.47;5036302;28;20201;-52
2023/10/19 10:46:24;;;;;;;11.77;10.77;;;;;;;-144.30;61.21;85368.59;5041968;28;20197;-53
2023/10/19 10:48:51;;;;;;;13.00;11.48;;;;;;;-144.30;60.96;85368.59;5039954;28;20207;-53
2023/10/19 10:51:23;;;;;;;11.60;10.50;;;;;;;-144.30;60.53;85368.59;5038580;28;20189;-59
2023/10/19 10:53:52;;;;;;;9.82;8.93;;;;;;;-144.30;59.30;85390.47;5039607;28;20246;-59
2023/10/19 10:56:23;;;;;;;10.33;9.43;;;;;;;-144.30;59.20;85358.66;5040679;28;20597;-58
2023/10/19 10:58:50;;;;;;;12.80;11.50;;;;;;;-144.30;59.93;85364.63;5042321;28;20315;-58
2023/10/19 11:01:29;;;;;;;13.15;11.18;;;;;;;-144.30;61.16;85408.34;5042974;28;20193;-58
2023/10/19 11:04:06;;;;;;;13.47;11.97;;;;;;;-144.30;61.13;85440.16;5040328;28;20193;-59
2023/10/19 11:06:33;;;;;;;12.00;10.80;;;;;;;-144.30;61.28;85388.47;5030129;28;20286;-59
2023/10/19 11:09:10;;;;;;;17.80;14.27;;;;;;;-144.30;61.42;85392.47;5032508;28;20192;-59
2023/10/19 11:11:38;;;;;;;14.00;12.37;;;;;;;-144.30;60.65;85362.63;5029851;28;20687;-56